Singer Island, Florida
Current Conditions -  °F | °C
As of 8:53 PM on Saturday 20 Dec 2014 (Local Time) from KPBI Reporting Station
Few Clouds Few Clouds  
Wind Chill: 72°   Ceiling: Unl
Heat Index: 72°   Visibility: 10mi
Dew Point: 64°   Wind: 3mph
Humidity: 76%   Direction: 170°S
Pressure: 30.08"   Gusts: NA
Location:  26.7789°N, 80.0745°W
Report Text: KPBI 210153Z 17003KT 10SM FEW035 22/18 A3008 RMK AO2 SLP185 T02220178
Loading
Personal Weather Stations






























Interactive Weather Map New forecast layout! Learn more

10-Day Weather Forecast

Advertisements
Track Severe Weather on mobile